JBU545 KISP-KPBI
Flight info
| Callsign | JBU545 |
|---|---|
| Flight time | 2h 33m |
| Altitude | 34000 |
| Route | N0454F340 DCT BEADS DCT EMJAY Q167 ZJAAY Q97 KENLL CPTAN3 |
| Aircraft | A320/M-SDE3FGHIRWY/LB1 |
Departure
| Time | 2026-04-20 21:25 |
|---|---|
| Airport | Long Island MacArthur Airport (KISP) |
Arrival
| Time | 2026-04-20 23:59 |
|---|---|
| Airport | Palm Beach International Airport (KPBI) |
| Time | Latitude | Longitude | Altitude | Speed | Heading |
|---|---|---|---|---|---|
| 2026-04-20 21:08 | 40.79012 | -73.09911 | 113 ft | 0 kts | 180° |
| 2026-04-20 21:13 | 40.79016 | -73.09911 | 113 ft | 2 kts | 180° |
| 2026-04-20 21:13 | 40.79032 | -73.09911 | 113 ft | 3 kts | 180° |
| 2026-04-20 21:13 | 40.79051 | -73.09913 | 113 ft | 3 kts | 166° |
| 2026-04-20 21:14 | 40.79070 | -73.09923 | 113 ft | 3 kts | 148° |
| 2026-04-20 21:14 | 40.79085 | -73.09941 | 113 ft | 3 kts | 130° |
| 2026-04-20 21:14 | 40.79096 | -73.09964 | 113 ft | 3 kts | 114° |
| 2026-04-20 21:14 | 40.79103 | -73.09990 | 113 ft | 3 kts | 101° |
| 2026-04-20 21:15 | 40.79105 | -73.10017 | 113 ft | 3 kts | 90° |
| 2026-04-20 21:15 | 40.79105 | -73.10023 | 113 ft | 0 kts | 90° |
| 2026-04-20 21:16 | 40.79105 | -73.10022 | 113 ft | 1 kts | 90° |
| 2026-04-20 21:16 | 40.79105 | -73.10014 | 113 ft | 2 kts | 87° |
| 2026-04-20 21:16 | 40.79105 | -73.09975 | 113 ft | 6 kts | 90° |
| 2026-04-20 21:17 | 40.79105 | -73.09904 | 113 ft | 10 kts | 90° |
| 2026-04-20 21:17 | 40.79105 | -73.09825 | 113 ft | 1 kts | 91° |
| 2026-04-20 21:17 | 40.79105 | -73.09823 | 113 ft | 0 kts | 91° |
| 2026-04-20 21:18 | 40.79104 | -73.09795 | 113 ft | 7 kts | 94° |
| 2026-04-20 21:18 | 40.79108 | -73.09695 | 113 ft | 15 kts | 82° |
| 2026-04-20 21:19 | 40.79176 | -73.09573 | 113 ft | 18 kts | 47° |
| 2026-04-20 21:19 | 40.79258 | -73.09463 | 113 ft | 15 kts | 20° |
| 2026-04-20 21:19 | 40.79357 | -73.09466 | 113 ft | 14 kts | 352° |
| 2026-04-20 21:20 | 40.79542 | -73.09469 | 113 ft | 13 kts | 0° |
| 2026-04-20 21:20 | 40.79632 | -73.09471 | 113 ft | 13 kts | 358° |
| 2026-04-20 21:20 | 40.79691 | -73.09473 | 113 ft | 13 kts | 359° |
| 2026-04-20 21:20 | 40.79807 | -73.09476 | 113 ft | 13 kts | 359° |
| 2026-04-20 21:21 | 40.79868 | -73.09476 | 113 ft | 13 kts | 360° |
| 2026-04-20 21:21 | 40.79959 | -73.09477 | 113 ft | 13 kts | 359° |
| 2026-04-20 21:21 | 40.80040 | -73.09459 | 113 ft | 11 kts | 56° |
| 2026-04-20 21:21 | 40.80089 | -73.09391 | 113 ft | 11 kts | 34° |
| 2026-04-20 21:22 | 40.80153 | -73.09386 | 113 ft | 8 kts | 328° |
| 2026-04-20 21:22 | 40.80162 | -73.09402 | 113 ft | 0 kts | 289° |
| 2026-04-20 21:23 | 40.80164 | -73.09411 | 113 ft | 2 kts | 291° |
| 2026-04-20 21:23 | 40.80172 | -73.09431 | 113 ft | 3 kts | 297° |
| 2026-04-20 21:24 | 40.80189 | -73.09455 | 113 ft | 4 kts | 316° |
| 2026-04-20 21:24 | 40.80198 | -73.09487 | 113 ft | 4 kts | 248° |
| 2026-04-20 21:24 | 40.80187 | -73.09503 | 113 ft | 0 kts | 226° |
| 2026-04-20 21:25 | 40.80067 | -73.09665 | 113 ft | 63 kts | 225° |
| 2026-04-20 21:25 | 40.79570 | -73.10313 | 114 ft | 136 kts | 227° |
| 2026-04-20 21:25 | 40.78780 | -73.11377 | 265 ft | 176 kts | 231° |
| 2026-04-20 21:25 | 40.77945 | -73.12515 | 1097 ft | 172 kts | 231° |
| 2026-04-20 21:26 | 40.77096 | -73.13700 | 1572 ft | 184 kts | 231° |
| 2026-04-20 21:26 | 40.76171 | -73.14957 | 1924 ft | 198 kts | 229° |
| 2026-04-20 21:26 | 40.75160 | -73.16317 | 2234 ft | 217 kts | 229° |
| 2026-04-20 21:26 | 40.74084 | -73.17772 | 2683 ft | 232 kts | 229° |
| 2026-04-20 21:27 | 40.72728 | -73.19156 | 3171 ft | 251 kts | 208° |
| 2026-04-20 21:27 | 40.70995 | -73.19762 | 3822 ft | 262 kts | 191° |
| 2026-04-20 21:27 | 40.69173 | -73.20031 | 4579 ft | 266 kts | 188° |
| 2026-04-20 21:27 | 40.67318 | -73.20198 | 5321 ft | 269 kts | 187° |
| 2026-04-20 21:28 | 40.65440 | -73.20351 | 6069 ft | 271 kts | 188° |
| 2026-04-20 21:28 | 40.63557 | -73.20541 | 6826 ft | 271 kts | 189° |
| 2026-04-20 21:28 | 40.61675 | -73.20755 | 7547 ft | 272 kts | 190° |
| 2026-04-20 21:28 | 40.59760 | -73.20964 | 8266 ft | 273 kts | 189° |
| 2026-04-20 21:29 | 40.57862 | -73.21158 | 8968 ft | 273 kts | 189° |
| 2026-04-20 21:29 | 40.55965 | -73.21349 | 9675 ft | 272 kts | 190° |
| 2026-04-20 21:29 | 40.54076 | -73.21545 | 10330 ft | 274 kts | 190° |
| 2026-04-20 21:29 | 40.52145 | -73.21752 | 10765 ft | 283 kts | 190° |
| 2026-04-20 21:30 | 40.50135 | -73.21969 | 11076 ft | 297 kts | 189° |
| 2026-04-20 21:30 | 40.48027 | -73.22193 | 11364 ft | 311 kts | 189° |
| 2026-04-20 21:30 | 40.45843 | -73.22419 | 11668 ft | 323 kts | 189° |
| 2026-04-20 21:30 | 40.43588 | -73.22646 | 12211 ft | 326 kts | 188° |
| 2026-04-20 21:31 | 40.41323 | -73.22873 | 12838 ft | 326 kts | 188° |
| 2026-04-20 21:31 | 40.39059 | -73.23104 | 13425 ft | 327 kts | 188° |
| 2026-04-20 21:31 | 40.36781 | -73.23338 | 13993 ft | 328 kts | 188° |
| 2026-04-20 21:31 | 40.34495 | -73.23574 | 14497 ft | 332 kts | 189° |
| 2026-04-20 21:32 | 40.32183 | -73.23815 | 14985 ft | 335 kts | 189° |
| 2026-04-20 21:32 | 40.29852 | -73.24057 | 15476 ft | 337 kts | 189° |
| 2026-04-20 21:32 | 40.27498 | -73.24299 | 15949 ft | 340 kts | 189° |
| 2026-04-20 21:32 | 40.25153 | -73.24540 | 16395 ft | 344 kts | 189° |
| 2026-04-20 21:33 | 40.22753 | -73.24786 | 16842 ft | 347 kts | 189° |
| 2026-04-20 21:33 | 40.20335 | -73.25035 | 17281 ft | 350 kts | 189° |
| 2026-04-20 21:33 | 40.17891 | -73.25287 | 17712 ft | 353 kts | 189° |
| 2026-04-20 21:33 | 40.15427 | -73.25540 | 18143 ft | 356 kts | 189° |
| 2026-04-20 21:34 | 40.12952 | -73.25801 | 18591 ft | 358 kts | 191° |
| 2026-04-20 21:34 | 40.10517 | -73.26365 | 19029 ft | 354 kts | 200° |
| 2026-04-20 21:34 | 40.08246 | -73.27539 | 19459 ft | 349 kts | 212° |
| 2026-04-20 21:34 | 40.06260 | -73.29325 | 19906 ft | 345 kts | 223° |
| 2026-04-20 21:35 | 40.04463 | -73.31394 | 20398 ft | 344 kts | 226° |
| 2026-04-20 21:35 | 40.02698 | -73.33505 | 20848 ft | 345 kts | 226° |
| 2026-04-20 21:35 | 40.00911 | -73.35604 | 21281 ft | 346 kts | 225° |
| 2026-04-20 21:35 | 39.99091 | -73.37665 | 21705 ft | 347 kts | 224° |
| 2026-04-20 21:36 | 39.97253 | -73.39693 | 22190 ft | 345 kts | 224° |
| 2026-04-20 21:36 | 39.95418 | -73.41713 | 22629 ft | 345 kts | 225° |
| 2026-04-20 21:36 | 39.93588 | -73.43743 | 23061 ft | 344 kts | 225° |
| 2026-04-20 21:36 | 39.91801 | -73.45739 | 23581 ft | 341 kts | 225° |
| 2026-04-20 21:37 | 39.89995 | -73.47758 | 23908 ft | 343 kts | 225° |
| 2026-04-20 21:37 | 39.88181 | -73.49786 | 24213 ft | 345 kts | 225° |
| 2026-04-20 21:37 | 39.86350 | -73.51824 | 24513 ft | 347 kts | 225° |
| 2026-04-20 21:37 | 39.84509 | -73.53871 | 24806 ft | 349 kts | 225° |
| 2026-04-20 21:38 | 39.82662 | -73.55927 | 25096 ft | 351 kts | 225° |
| 2026-04-20 21:38 | 39.80800 | -73.58002 | 25383 ft | 353 kts | 225° |
| 2026-04-20 21:38 | 39.78934 | -73.60081 | 25662 ft | 355 kts | 225° |
| 2026-04-20 21:38 | 39.77055 | -73.62171 | 25934 ft | 356 kts | 225° |
| 2026-04-20 21:39 | 39.75163 | -73.64273 | 26206 ft | 358 kts | 225° |
| 2026-04-20 21:39 | 39.73265 | -73.66381 | 26470 ft | 360 kts | 225° |
| 2026-04-20 21:39 | 39.71376 | -73.68476 | 26733 ft | 362 kts | 225° |
| 2026-04-20 21:39 | 39.69457 | -73.70604 | 26990 ft | 364 kts | 225° |
| 2026-04-20 21:40 | 39.67527 | -73.72742 | 27243 ft | 365 kts | 225° |
| 2026-04-20 21:40 | 39.65582 | -73.74895 | 27473 ft | 368 kts | 225° |
| 2026-04-20 21:40 | 39.63632 | -73.77052 | 27736 ft | 369 kts | 225° |
| 2026-04-20 21:40 | 39.61672 | -73.79221 | 27981 ft | 370 kts | 225° |
| 2026-04-20 21:41 | 39.59708 | -73.81390 | 28222 ft | 372 kts | 225° |
| 2026-04-20 21:41 | 39.57731 | -73.83572 | 28454 ft | 374 kts | 225° |
| 2026-04-20 21:41 | 39.55743 | -73.85765 | 28684 ft | 375 kts | 225° |
| 2026-04-20 21:41 | 39.53772 | -73.87937 | 28905 ft | 377 kts | 226° |
| 2026-04-20 21:42 | 39.51745 | -73.90169 | 29134 ft | 378 kts | 226° |
| 2026-04-20 21:42 | 39.49759 | -73.92355 | 29345 ft | 380 kts | 226° |
| 2026-04-20 21:42 | 39.47743 | -73.94571 | 29552 ft | 381 kts | 225° |
| 2026-04-20 21:42 | 39.45713 | -73.96801 | 29752 ft | 383 kts | 225° |
| 2026-04-20 21:43 | 39.43673 | -73.99041 | 29943 ft | 385 kts | 225° |
| 2026-04-20 21:43 | 39.41620 | -74.01293 | 30135 ft | 387 kts | 225° |
| 2026-04-20 21:43 | 39.39554 | -74.03554 | 30323 ft | 389 kts | 225° |
| 2026-04-20 21:43 | 39.37485 | -74.05817 | 30506 ft | 391 kts | 225° |
| 2026-04-20 21:44 | 39.35399 | -74.08096 | 30716 ft | 392 kts | 225° |
| 2026-04-20 21:44 | 39.33317 | -74.10370 | 30956 ft | 392 kts | 225° |
| 2026-04-20 21:44 | 39.31231 | -74.12646 | 31189 ft | 393 kts | 225° |
| 2026-04-20 21:44 | 39.29143 | -74.14922 | 31410 ft | 393 kts | 225° |
| 2026-04-20 21:45 | 39.27052 | -74.17198 | 31637 ft | 393 kts | 225° |
| 2026-04-20 21:45 | 39.24955 | -74.19480 | 31859 ft | 394 kts | 225° |
| 2026-04-20 21:45 | 39.22861 | -74.21757 | 32073 ft | 394 kts | 225° |
| 2026-04-20 21:45 | 39.20786 | -74.24011 | 32279 ft | 395 kts | 225° |
| 2026-04-20 21:46 | 39.18680 | -74.26297 | 32490 ft | 395 kts | 225° |
| 2026-04-20 21:46 | 39.16579 | -74.28577 | 32694 ft | 396 kts | 225° |
| 2026-04-20 21:46 | 39.14469 | -74.30867 | 32900 ft | 396 kts | 225° |
| 2026-04-20 21:46 | 39.12358 | -74.33156 | 33101 ft | 397 kts | 225° |
| 2026-04-20 21:47 | 39.10242 | -74.35447 | 33296 ft | 397 kts | 224° |
| 2026-04-20 21:47 | 39.08122 | -74.37739 | 33490 ft | 398 kts | 224° |
| 2026-04-20 21:47 | 39.05999 | -74.40029 | 33665 ft | 398 kts | 225° |
| 2026-04-20 21:47 | 39.03877 | -74.42320 | 33840 ft | 399 kts | 225° |
| 2026-04-20 21:48 | 39.01746 | -74.44620 | 34016 ft | 399 kts | 225° |
| 2026-04-20 21:48 | 38.99619 | -74.46918 | 34171 ft | 400 kts | 225° |
| 2026-04-20 21:48 | 38.97510 | -74.49189 | 34271 ft | 401 kts | 225° |
| 2026-04-20 21:49 | 38.93259 | -74.53828 | 34269 ft | 399 kts | 226° |
| 2026-04-20 21:49 | 38.89158 | -74.58635 | 34268 ft | 399 kts | 227° |
| 2026-04-20 21:50 | 38.85061 | -74.63454 | 34268 ft | 399 kts | 227° |
| 2026-04-20 21:50 | 38.80950 | -74.68251 | 34269 ft | 399 kts | 227° |
| 2026-04-20 21:51 | 38.76837 | -74.73045 | 34273 ft | 399 kts | 227° |
| 2026-04-20 21:51 | 38.72619 | -74.77698 | 34274 ft | 401 kts | 224° |
| 2026-04-20 21:52 | 38.68276 | -74.82201 | 34279 ft | 401 kts | 224° |
| 2026-04-20 21:52 | 38.63961 | -74.86673 | 34287 ft | 401 kts | 224° |
| 2026-04-20 21:53 | 38.59634 | -74.91181 | 34295 ft | 401 kts | 224° |
| 2026-04-20 21:53 | 38.55297 | -74.95682 | 34303 ft | 401 kts | 224° |
| 2026-04-20 21:54 | 38.51019 | -75.00249 | 34304 ft | 400 kts | 226° |
| 2026-04-20 21:54 | 38.46821 | -75.04914 | 34306 ft | 400 kts | 225° |
| 2026-04-20 21:55 | 38.42381 | -75.09248 | 34298 ft | 402 kts | 222° |
| 2026-04-20 21:55 | 38.37906 | -75.13444 | 34263 ft | 402 kts | 222° |
| 2026-04-20 21:56 | 38.33421 | -75.17697 | 34241 ft | 401 kts | 223° |
| 2026-04-20 21:56 | 38.28945 | -75.21954 | 34223 ft | 402 kts | 223° |
| 2026-04-20 21:57 | 38.24458 | -75.26198 | 34217 ft | 401 kts | 222° |
| 2026-04-20 21:57 | 38.19998 | -75.30411 | 34216 ft | 401 kts | 223° |
| 2026-04-20 21:58 | 38.15485 | -75.34671 | 34217 ft | 402 kts | 223° |
| 2026-04-20 21:58 | 38.11023 | -75.38872 | 34247 ft | 401 kts | 223° |
| 2026-04-20 21:59 | 38.06534 | -75.43092 | 34260 ft | 401 kts | 223° |
| 2026-04-20 21:59 | 38.01947 | -75.47202 | 34274 ft | 403 kts | 221° |
| 2026-04-20 22:00 | 37.97343 | -75.51198 | 34282 ft | 403 kts | 221° |
| 2026-04-20 22:00 | 37.92708 | -75.55233 | 34269 ft | 403 kts | 221° |
| 2026-04-20 22:01 | 37.88083 | -75.59266 | 34255 ft | 404 kts | 221° |
| 2026-04-20 22:01 | 37.83415 | -75.63236 | 34244 ft | 406 kts | 219° |
| 2026-04-20 22:02 | 37.78552 | -75.66923 | 34234 ft | 408 kts | 218° |
| 2026-04-20 22:02 | 37.73654 | -75.70572 | 34220 ft | 408 kts | 218° |
| 2026-04-20 22:03 | 37.68807 | -75.74219 | 34217 ft | 408 kts | 218° |
| 2026-04-20 22:03 | 37.64736 | -75.77278 | 34218 ft | 409 kts | 218° |
| 2026-04-20 22:04 | 37.59840 | -75.80946 | 34246 ft | 409 kts | 218° |
| 2026-04-20 22:04 | 37.54141 | -75.85211 | 34276 ft | 409 kts | 218° |
| 2026-04-20 22:05 | 37.50236 | -75.88518 | 34289 ft | 405 kts | 222° |
| 2026-04-20 22:05 | 37.45641 | -75.92646 | 34299 ft | 405 kts | 223° |
| 2026-04-20 22:06 | 37.41029 | -75.96761 | 34258 ft | 406 kts | 222° |
| 2026-04-20 22:06 | 37.36421 | -76.00823 | 34216 ft | 407 kts | 222° |
| 2026-04-20 22:07 | 37.31778 | -76.04925 | 34219 ft | 407 kts | 222° |
| 2026-04-20 22:07 | 37.27133 | -76.09031 | 34221 ft | 408 kts | 222° |
| 2026-04-20 22:08 | 37.22693 | -76.12944 | 34221 ft | 410 kts | 222° |
| 2026-04-20 22:08 | 37.18020 | -76.17055 | 34221 ft | 411 kts | 222° |
| 2026-04-20 22:09 | 37.13338 | -76.21171 | 34264 ft | 411 kts | 222° |
| 2026-04-20 22:09 | 37.08661 | -76.25274 | 34307 ft | 410 kts | 222° |
| 2026-04-20 22:10 | 37.04010 | -76.29352 | 34308 ft | 410 kts | 222° |
| 2026-04-20 22:10 | 36.99326 | -76.33448 | 34303 ft | 410 kts | 222° |
| 2026-04-20 22:11 | 36.94650 | -76.37534 | 34289 ft | 410 kts | 222° |
| 2026-04-20 22:11 | 36.89968 | -76.41616 | 34278 ft | 410 kts | 222° |
| 2026-04-20 22:12 | 36.85279 | -76.45696 | 34261 ft | 410 kts | 222° |
| 2026-04-20 22:12 | 36.80586 | -76.49780 | 34225 ft | 411 kts | 222° |
| 2026-04-20 22:13 | 36.75881 | -76.53868 | 34215 ft | 412 kts | 222° |
| 2026-04-20 22:13 | 36.71196 | -76.57928 | 34214 ft | 413 kts | 222° |
| 2026-04-20 22:14 | 36.66463 | -76.62024 | 34223 ft | 414 kts | 222° |
| 2026-04-20 22:14 | 36.61728 | -76.66116 | 34272 ft | 414 kts | 222° |
| 2026-04-20 22:15 | 36.56996 | -76.70198 | 34296 ft | 414 kts | 222° |
| 2026-04-20 22:15 | 36.52291 | -76.74254 | 34293 ft | 414 kts | 222° |
| 2026-04-20 22:16 | 36.47546 | -76.78338 | 34287 ft | 414 kts | 222° |
| 2026-04-20 22:16 | 36.42794 | -76.82416 | 34263 ft | 415 kts | 222° |
| 2026-04-20 22:17 | 36.38047 | -76.86485 | 34245 ft | 414 kts | 222° |
| 2026-04-20 22:17 | 36.33320 | -76.90576 | 34231 ft | 414 kts | 223° |
| 2026-04-20 22:18 | 36.28637 | -76.94705 | 34271 ft | 412 kts | 223° |
| 2026-04-20 22:18 | 36.23949 | -76.98804 | 34251 ft | 413 kts | 223° |
| 2026-04-20 22:19 | 36.19272 | -77.02867 | 34214 ft | 413 kts | 223° |
| 2026-04-20 22:19 | 36.14576 | -77.06958 | 34217 ft | 412 kts | 223° |
| 2026-04-20 22:20 | 36.09883 | -77.11036 | 34211 ft | 412 kts | 222° |
| 2026-04-20 22:20 | 36.05193 | -77.15107 | 34222 ft | 411 kts | 222° |
| 2026-04-20 22:21 | 36.00536 | -77.19141 | 34197 ft | 411 kts | 222° |
| 2026-04-20 22:21 | 35.95849 | -77.23196 | 34191 ft | 411 kts | 222° |
| 2026-04-20 22:22 | 35.91220 | -77.27337 | 34188 ft | 409 kts | 224° |
| 2026-04-20 22:22 | 35.86749 | -77.31665 | 34187 ft | 408 kts | 225° |
| 2026-04-20 22:23 | 35.82269 | -77.36014 | 34186 ft | 409 kts | 225° |
| 2026-04-20 22:23 | 35.77802 | -77.40310 | 34191 ft | 410 kts | 224° |
| 2026-04-20 22:24 | 35.73306 | -77.44631 | 34213 ft | 410 kts | 224° |
| 2026-04-20 22:24 | 35.68809 | -77.48953 | 34230 ft | 410 kts | 225° |
| 2026-04-20 22:25 | 35.64304 | -77.53279 | 34212 ft | 411 kts | 225° |
| 2026-04-20 22:25 | 35.59786 | -77.57606 | 34233 ft | 411 kts | 224° |
| 2026-04-20 22:26 | 35.55297 | -77.61897 | 34270 ft | 410 kts | 224° |
| 2026-04-20 22:26 | 35.50794 | -77.66200 | 34254 ft | 411 kts | 224° |
| 2026-04-20 22:27 | 35.44011 | -77.72664 | 34221 ft | 411 kts | 224° |
| 2026-04-20 22:27 | 35.39510 | -77.76951 | 34188 ft | 412 kts | 224° |
| 2026-04-20 22:28 | 35.34979 | -77.81254 | 34187 ft | 412 kts | 224° |
| 2026-04-20 22:28 | 35.30445 | -77.85559 | 34185 ft | 412 kts | 224° |
| 2026-04-20 22:29 | 35.25899 | -77.89864 | 34192 ft | 413 kts | 224° |
| 2026-04-20 22:29 | 35.21355 | -77.94165 | 34211 ft | 413 kts | 224° |
| 2026-04-20 22:30 | 35.16815 | -77.98451 | 34245 ft | 412 kts | 224° |
| 2026-04-20 22:30 | 35.12309 | -78.02700 | 34277 ft | 412 kts | 224° |
| 2026-04-20 22:31 | 35.07770 | -78.06975 | 34276 ft | 412 kts | 224° |
| 2026-04-20 22:31 | 35.03234 | -78.11243 | 34276 ft | 411 kts | 224° |
| 2026-04-20 22:32 | 34.98696 | -78.15503 | 34252 ft | 412 kts | 224° |
| 2026-04-20 22:32 | 34.94151 | -78.19767 | 34217 ft | 412 kts | 224° |
| 2026-04-20 22:33 | 34.89603 | -78.24026 | 34190 ft | 413 kts | 224° |
| 2026-04-20 22:33 | 34.85046 | -78.28285 | 34187 ft | 413 kts | 224° |
| 2026-04-20 22:34 | 34.80486 | -78.32544 | 34186 ft | 413 kts | 224° |
| 2026-04-20 22:34 | 34.75950 | -78.36778 | 34207 ft | 414 kts | 224° |
| 2026-04-20 22:35 | 34.71381 | -78.41034 | 34223 ft | 414 kts | 224° |
| 2026-04-20 22:35 | 34.66803 | -78.45287 | 34241 ft | 414 kts | 224° |
| 2026-04-20 22:36 | 34.62226 | -78.49534 | 34289 ft | 412 kts | 225° |
| 2026-04-20 22:36 | 34.57686 | -78.53748 | 34290 ft | 411 kts | 225° |
| 2026-04-20 22:37 | 34.53146 | -78.57957 | 34289 ft | 410 kts | 225° |
| 2026-04-20 22:37 | 34.48608 | -78.62150 | 34261 ft | 409 kts | 225° |
| 2026-04-20 22:38 | 34.44081 | -78.66327 | 34251 ft | 408 kts | 225° |
| 2026-04-20 22:38 | 34.39550 | -78.70441 | 34289 ft | 408 kts | 223° |
| 2026-04-20 22:39 | 34.34884 | -78.74352 | 34253 ft | 408 kts | 222° |
| 2026-04-20 22:39 | 34.30225 | -78.78211 | 34211 ft | 408 kts | 223° |
| 2026-04-20 22:40 | 34.25555 | -78.82107 | 34215 ft | 408 kts | 223° |
| 2026-04-20 22:40 | 34.20867 | -78.86013 | 34218 ft | 409 kts | 223° |
| 2026-04-20 22:41 | 34.16182 | -78.89902 | 34241 ft | 409 kts | 223° |
| 2026-04-20 22:41 | 34.11498 | -78.93800 | 34299 ft | 407 kts | 223° |
| 2026-04-20 22:42 | 34.06829 | -78.97672 | 34303 ft | 406 kts | 223° |
| 2026-04-20 22:42 | 34.02197 | -79.01513 | 34304 ft | 403 kts | 223° |
| 2026-04-20 22:43 | 33.97583 | -79.05338 | 34279 ft | 401 kts | 223° |
| 2026-04-20 22:43 | 33.93013 | -79.09123 | 34236 ft | 400 kts | 223° |
| 2026-04-20 22:44 | 33.88421 | -79.12908 | 34236 ft | 399 kts | 223° |
| 2026-04-20 22:44 | 33.83855 | -79.16675 | 34223 ft | 400 kts | 223° |
| 2026-04-20 22:45 | 33.79251 | -79.20464 | 34222 ft | 402 kts | 223° |
| 2026-04-20 22:45 | 33.74631 | -79.24262 | 34225 ft | 403 kts | 224° |
| 2026-04-20 22:46 | 33.70003 | -79.28060 | 34262 ft | 402 kts | 224° |
| 2026-04-20 22:46 | 33.65403 | -79.31861 | 34318 ft | 400 kts | 225° |
| 2026-04-20 22:47 | 33.60887 | -79.35733 | 34336 ft | 397 kts | 225° |
| 2026-04-20 22:47 | 33.56416 | -79.39550 | 34335 ft | 395 kts | 225° |
| 2026-04-20 22:48 | 33.51937 | -79.43336 | 34315 ft | 392 kts | 226° |
| 2026-04-20 22:48 | 33.47491 | -79.47096 | 34272 ft | 390 kts | 226° |
| 2026-04-20 22:49 | 33.43060 | -79.50847 | 34239 ft | 390 kts | 226° |
| 2026-04-20 22:49 | 33.38655 | -79.54570 | 34238 ft | 390 kts | 226° |
| 2026-04-20 22:50 | 33.34207 | -79.58322 | 34230 ft | 392 kts | 226° |
| 2026-04-20 22:50 | 33.29737 | -79.62090 | 34228 ft | 393 kts | 226° |
| 2026-04-20 22:51 | 33.25248 | -79.65865 | 34227 ft | 395 kts | 226° |
| 2026-04-20 22:51 | 33.20751 | -79.69652 | 34253 ft | 396 kts | 226° |
| 2026-04-20 22:52 | 33.16274 | -79.73407 | 34302 ft | 396 kts | 226° |
| 2026-04-20 22:52 | 33.12517 | -79.76556 | 34305 ft | 396 kts | 226° |
| 2026-04-20 22:53 | 33.07980 | -79.80357 | 34303 ft | 396 kts | 226° |
| 2026-04-20 22:53 | 33.03488 | -79.84104 | 34302 ft | 396 kts | 226° |
| 2026-04-20 22:54 | 32.98978 | -79.87875 | 34292 ft | 396 kts | 226° |
| 2026-04-20 22:54 | 32.94460 | -79.91637 | 34263 ft | 396 kts | 226° |
| 2026-04-20 22:55 | 32.89939 | -79.95401 | 34247 ft | 396 kts | 226° |
| 2026-04-20 22:55 | 32.85429 | -79.99159 | 34239 ft | 396 kts | 226° |
| 2026-04-20 22:56 | 32.80938 | -80.02886 | 34237 ft | 396 kts | 226° |
| 2026-04-20 22:56 | 32.76421 | -80.06635 | 34248 ft | 396 kts | 226° |
| 2026-04-20 22:57 | 32.71909 | -80.10388 | 34247 ft | 396 kts | 226° |
| 2026-04-20 22:57 | 32.67382 | -80.14131 | 34257 ft | 396 kts | 226° |
| 2026-04-20 22:58 | 32.62872 | -80.17858 | 34276 ft | 396 kts | 226° |
| 2026-04-20 22:58 | 32.58346 | -80.21600 | 34290 ft | 396 kts | 226° |
| 2026-04-20 22:59 | 32.53813 | -80.25339 | 34301 ft | 396 kts | 226° |
| 2026-04-20 22:59 | 32.49035 | -80.28796 | 34275 ft | 406 kts | 221° |
| 2026-04-20 23:00 | 32.44009 | -80.31928 | 34234 ft | 409 kts | 220° |
| 2026-04-20 23:00 | 32.38991 | -80.35057 | 34213 ft | 409 kts | 220° |
| 2026-04-20 23:01 | 32.33972 | -80.38257 | 34201 ft | 410 kts | 221° |
| 2026-04-20 23:01 | 32.28927 | -80.41451 | 34198 ft | 412 kts | 220° |
| 2026-04-20 23:02 | 32.23849 | -80.44637 | 34214 ft | 413 kts | 220° |
| 2026-04-20 23:02 | 32.18769 | -80.47837 | 34272 ft | 413 kts | 220° |
| 2026-04-20 23:03 | 32.13716 | -80.51015 | 34281 ft | 413 kts | 220° |
| 2026-04-20 23:03 | 32.08640 | -80.54194 | 34278 ft | 413 kts | 220° |
| 2026-04-20 23:04 | 32.03562 | -80.57378 | 34278 ft | 413 kts | 220° |
| 2026-04-20 23:04 | 31.98486 | -80.60559 | 34252 ft | 413 kts | 221° |
| 2026-04-20 23:05 | 31.93406 | -80.63737 | 34209 ft | 413 kts | 220° |
| 2026-04-20 23:05 | 31.88354 | -80.66888 | 34188 ft | 414 kts | 220° |
| 2026-04-20 23:06 | 31.83264 | -80.70063 | 34189 ft | 414 kts | 221° |
| 2026-04-20 23:06 | 31.78172 | -80.73240 | 34195 ft | 414 kts | 220° |
| 2026-04-20 23:07 | 31.73080 | -80.76405 | 34205 ft | 414 kts | 220° |
| 2026-04-20 23:07 | 31.67988 | -80.79571 | 34215 ft | 414 kts | 220° |
| 2026-04-20 23:08 | 31.62920 | -80.82718 | 34222 ft | 414 kts | 220° |
| 2026-04-20 23:08 | 31.57827 | -80.85878 | 34230 ft | 414 kts | 220° |
| 2026-04-20 23:09 | 31.52687 | -80.89071 | 34254 ft | 423 kts | 220° |
| 2026-04-20 23:09 | 31.47427 | -80.92327 | 34278 ft | 431 kts | 219° |
| 2026-04-20 23:10 | 31.42099 | -80.95603 | 34289 ft | 432 kts | 219° |
| 2026-04-20 23:10 | 31.36819 | -80.98865 | 34295 ft | 431 kts | 219° |
| 2026-04-20 23:11 | 31.31505 | -81.02137 | 34297 ft | 432 kts | 219° |
| 2026-04-20 23:11 | 31.26091 | -81.05253 | 34299 ft | 443 kts | 212° |
| 2026-04-20 23:12 | 31.23044 | -81.06189 | 34413 ft | 463 kts | 200° |
| 2026-04-20 23:12 | 31.19777 | -81.06447 | 34647 ft | 475 kts | 192° |
| 2026-04-20 23:12 | 31.16463 | -81.06450 | 34866 ft | 478 kts | 191° |
| 2026-04-20 23:12 | 31.13141 | -81.06386 | 35058 ft | 478 kts | 191° |
| 2026-04-20 23:13 | 31.09817 | -81.06361 | 35259 ft | 476 kts | 192° |
| 2026-04-20 23:13 | 31.06519 | -81.06412 | 35459 ft | 473 kts | 193° |
| 2026-04-20 23:13 | 31.03230 | -81.06523 | 35650 ft | 472 kts | 193° |
| 2026-04-20 23:13 | 30.99951 | -81.06646 | 35831 ft | 472 kts | 193° |
| 2026-04-20 23:14 | 30.96664 | -81.06743 | 35984 ft | 473 kts | 193° |
| 2026-04-20 23:14 | 30.93366 | -81.06804 | 36179 ft | 472 kts | 192° |
| 2026-04-20 23:14 | 30.86764 | -81.06895 | 36271 ft | 477 kts | 193° |
| 2026-04-20 23:15 | 30.80147 | -81.07035 | 36288 ft | 474 kts | 193° |
| 2026-04-20 23:15 | 30.73550 | -81.07185 | 36297 ft | 476 kts | 193° |
| 2026-04-20 23:16 | 30.66962 | -81.07319 | 36298 ft | 477 kts | 192° |
| 2026-04-20 23:16 | 30.60336 | -81.07526 | 36286 ft | 473 kts | 194° |
| 2026-04-20 23:17 | 30.53767 | -81.07928 | 36244 ft | 472 kts | 195° |
| 2026-04-20 23:17 | 30.47205 | -81.08352 | 36248 ft | 472 kts | 195° |
| 2026-04-20 23:18 | 30.40668 | -81.08741 | 36243 ft | 474 kts | 194° |
| 2026-04-20 23:18 | 30.34059 | -81.09125 | 36249 ft | 477 kts | 194° |
| 2026-04-20 23:19 | 30.27421 | -81.09524 | 36305 ft | 477 kts | 194° |
| 2026-04-20 23:19 | 30.20784 | -81.09930 | 36332 ft | 476 kts | 194° |
| 2026-04-20 23:20 | 30.14168 | -81.10323 | 36332 ft | 474 kts | 194° |
| 2026-04-20 23:20 | 30.07590 | -81.10714 | 36323 ft | 472 kts | 194° |
| 2026-04-20 23:21 | 30.01079 | -81.11110 | 36281 ft | 471 kts | 194° |
| 2026-04-20 23:21 | 29.94532 | -81.11500 | 36242 ft | 471 kts | 194° |
| 2026-04-20 23:22 | 29.87981 | -81.11891 | 36248 ft | 471 kts | 194° |
| 2026-04-20 23:22 | 29.81409 | -81.12247 | 36242 ft | 476 kts | 192° |
| 2026-04-20 23:23 | 29.74750 | -81.12300 | 36238 ft | 479 kts | 191° |
| 2026-04-20 23:23 | 29.68132 | -81.12298 | 36293 ft | 478 kts | 191° |
| 2026-04-20 23:24 | 29.61479 | -81.12336 | 36312 ft | 477 kts | 191° |
| 2026-04-20 23:24 | 29.54765 | -81.11409 | 36313 ft | 500 kts | 172° |
| 2026-04-20 23:25 | 29.48162 | -81.08684 | 36299 ft | 505 kts | 167° |
| 2026-04-20 23:25 | 29.41626 | -81.05775 | 36259 ft | 502 kts | 169° |
| 2026-04-20 23:26 | 29.35104 | -81.03128 | 36220 ft | 499 kts | 170° |
| 2026-04-20 23:26 | 29.28527 | -81.00481 | 36215 ft | 501 kts | 169° |
| 2026-04-20 23:27 | 29.21972 | -80.97739 | 36217 ft | 502 kts | 169° |
| 2026-04-20 23:27 | 29.15499 | -80.95043 | 35998 ft | 489 kts | 169° |
| 2026-04-20 23:28 | 29.12295 | -80.93731 | 35880 ft | 488 kts | 169° |
| 2026-04-20 23:28 | 29.09060 | -80.92415 | 35757 ft | 487 kts | 169° |
| 2026-04-20 23:28 | 29.05910 | -80.91133 | 35638 ft | 485 kts | 169° |
| 2026-04-20 23:28 | 29.02734 | -80.89830 | 35517 ft | 484 kts | 169° |
| 2026-04-20 23:29 | 28.99568 | -80.88521 | 35396 ft | 483 kts | 169° |
| 2026-04-20 23:29 | 28.96415 | -80.87218 | 35276 ft | 482 kts | 169° |
| 2026-04-20 23:29 | 28.90116 | -80.84638 | 35264 ft | 478 kts | 169° |
| 2026-04-20 23:30 | 28.83793 | -80.82068 | 35241 ft | 481 kts | 169° |
| 2026-04-20 23:30 | 28.77448 | -80.79487 | 35179 ft | 488 kts | 169° |
| 2026-04-20 23:31 | 28.71073 | -80.76879 | 35237 ft | 490 kts | 169° |
| 2026-04-20 23:31 | 28.64668 | -80.74259 | 35286 ft | 483 kts | 169° |
| 2026-04-20 23:32 | 28.58288 | -80.71676 | 35283 ft | 489 kts | 169° |
| 2026-04-20 23:32 | 28.51871 | -80.69070 | 35240 ft | 489 kts | 169° |
| 2026-04-20 23:33 | 28.45447 | -80.66453 | 35199 ft | 489 kts | 169° |
| 2026-04-20 23:33 | 28.39030 | -80.63864 | 35159 ft | 490 kts | 169° |
| 2026-04-20 23:34 | 28.35849 | -80.62576 | 35020 ft | 481 kts | 169° |
| 2026-04-20 23:34 | 28.32715 | -80.61302 | 34534 ft | 477 kts | 169° |
| 2026-04-20 23:34 | 28.29619 | -80.60049 | 33736 ft | 480 kts | 169° |
| 2026-04-20 23:34 | 28.26443 | -80.58774 | 32831 ft | 485 kts | 169° |
| 2026-04-20 23:35 | 28.23268 | -80.57498 | 32274 ft | 481 kts | 168° |
| 2026-04-20 23:35 | 28.17098 | -80.54987 | 31639 ft | 462 kts | 169° |
| 2026-04-20 23:35 | 28.14078 | -80.53766 | 30912 ft | 460 kts | 169° |
| 2026-04-20 23:36 | 28.11068 | -80.52562 | 30163 ft | 458 kts | 168° |
| 2026-04-20 23:36 | 28.08072 | -80.51363 | 29453 ft | 453 kts | 168° |
| 2026-04-20 23:36 | 28.05114 | -80.50174 | 28753 ft | 449 kts | 168° |
| 2026-04-20 23:36 | 28.02192 | -80.48997 | 28118 ft | 442 kts | 168° |
| 2026-04-20 23:37 | 27.99304 | -80.47834 | 27389 ft | 439 kts | 168° |
| 2026-04-20 23:37 | 27.96439 | -80.46680 | 26738 ft | 433 kts | 167° |
| 2026-04-20 23:37 | 27.93637 | -80.45551 | 26074 ft | 430 kts | 167° |
| 2026-04-20 23:37 | 27.90848 | -80.44429 | 25560 ft | 422 kts | 167° |
| 2026-04-20 23:38 | 27.88076 | -80.43322 | 24831 ft | 420 kts | 167° |
| 2026-04-20 23:38 | 27.85335 | -80.42229 | 24224 ft | 415 kts | 167° |
| 2026-04-20 23:38 | 27.82638 | -80.41147 | 23608 ft | 410 kts | 167° |
| 2026-04-20 23:38 | 27.79949 | -80.40068 | 22892 ft | 408 kts | 167° |
| 2026-04-20 23:39 | 27.78186 | -80.39358 | 22476 ft | 405 kts | 166° |
| 2026-04-20 23:39 | 27.75538 | -80.38291 | 21795 ft | 402 kts | 166° |
| 2026-04-20 23:39 | 27.72916 | -80.37241 | 21146 ft | 399 kts | 166° |
| 2026-04-20 23:39 | 27.69404 | -80.35853 | 19881 ft | 404 kts | 165° |
| 2026-04-20 23:40 | 27.67639 | -80.35155 | 19188 ft | 408 kts | 165° |
| 2026-04-20 23:40 | 27.64992 | -80.33961 | 18414 ft | 408 kts | 159° |
| 2026-04-20 23:40 | 27.62439 | -80.32639 | 18021 ft | 396 kts | 158° |
| 2026-04-20 23:40 | 27.60006 | -80.31325 | 17777 ft | 380 kts | 157° |
| 2026-04-20 23:41 | 27.57656 | -80.30046 | 17447 ft | 369 kts | 157° |
| 2026-04-20 23:41 | 27.55346 | -80.28808 | 16953 ft | 366 kts | 158° |
| 2026-04-20 23:41 | 27.53032 | -80.27593 | 16207 ft | 370 kts | 158° |
| 2026-04-20 23:41 | 27.50691 | -80.26368 | 15503 ft | 370 kts | 157° |
| 2026-04-20 23:42 | 27.48386 | -80.25159 | 15152 ft | 358 kts | 157° |
| 2026-04-20 23:42 | 27.46199 | -80.24001 | 14957 ft | 344 kts | 156° |
| 2026-04-20 23:42 | 27.44076 | -80.22873 | 14698 ft | 332 kts | 156° |
| 2026-04-20 23:42 | 27.41998 | -80.21774 | 14225 ft | 329 kts | 156° |
| 2026-04-20 23:43 | 27.39927 | -80.20681 | 13763 ft | 325 kts | 156° |
| 2026-04-20 23:43 | 27.37872 | -80.19600 | 13336 ft | 327 kts | 156° |
| 2026-04-20 23:43 | 27.35805 | -80.18518 | 12973 ft | 327 kts | 156° |
| 2026-04-20 23:43 | 27.33750 | -80.17447 | 12581 ft | 326 kts | 156° |
| 2026-04-20 23:44 | 27.31730 | -80.16387 | 12258 ft | 323 kts | 156° |
| 2026-04-20 23:44 | 27.29703 | -80.15318 | 11912 ft | 320 kts | 155° |
| 2026-04-20 23:44 | 27.27691 | -80.14259 | 11566 ft | 318 kts | 155° |
| 2026-04-20 23:44 | 27.25696 | -80.13211 | 11196 ft | 316 kts | 155° |
| 2026-04-20 23:45 | 27.23704 | -80.12183 | 10781 ft | 312 kts | 156° |
| 2026-04-20 23:45 | 27.21716 | -80.11222 | 10330 ft | 309 kts | 158° |
| 2026-04-20 23:45 | 27.19749 | -80.10300 | 9916 ft | 304 kts | 158° |
| 2026-04-20 23:45 | 27.17806 | -80.09382 | 9530 ft | 304 kts | 157° |
| 2026-04-20 23:46 | 27.15849 | -80.08439 | 9154 ft | 305 kts | 156° |
| 2026-04-20 23:46 | 27.13902 | -80.07491 | 8777 ft | 305 kts | 156° |
| 2026-04-20 23:46 | 27.11961 | -80.06541 | 8421 ft | 303 kts | 156° |
| 2026-04-20 23:46 | 27.10029 | -80.05581 | 8066 ft | 302 kts | 155° |
| 2026-04-20 23:47 | 27.08143 | -80.04639 | 7718 ft | 300 kts | 155° |
| 2026-04-20 23:47 | 27.06240 | -80.03691 | 7384 ft | 298 kts | 155° |
| 2026-04-20 23:47 | 27.04350 | -80.02755 | 7054 ft | 296 kts | 155° |
| 2026-04-20 23:47 | 27.02486 | -80.01833 | 6887 ft | 288 kts | 154° |
| 2026-04-20 23:48 | 27.00600 | -80.01159 | 6737 ft | 281 kts | 172° |
| 2026-04-20 23:48 | 26.98694 | -80.01323 | 6618 ft | 271 kts | 198° |
| 2026-04-20 23:48 | 26.97090 | -80.02300 | 6521 ft | 258 kts | 223° |
| 2026-04-20 23:48 | 26.95873 | -80.03711 | 6430 ft | 246 kts | 231° |
| 2026-04-20 23:49 | 26.94778 | -80.05155 | 6216 ft | 241 kts | 232° |
| 2026-04-20 23:49 | 26.93713 | -80.06608 | 5885 ft | 242 kts | 233° |
| 2026-04-20 23:49 | 26.92648 | -80.08077 | 5560 ft | 243 kts | 233° |
| 2026-04-20 23:49 | 26.91599 | -80.09539 | 5266 ft | 243 kts | 233° |
| 2026-04-20 23:50 | 26.90549 | -80.11013 | 4950 ft | 242 kts | 233° |
| 2026-04-20 23:50 | 26.89500 | -80.12491 | 4574 ft | 242 kts | 233° |
| 2026-04-20 23:50 | 26.88449 | -80.13975 | 4194 ft | 242 kts | 233° |
| 2026-04-20 23:50 | 26.87400 | -80.15458 | 3809 ft | 242 kts | 233° |
| 2026-04-20 23:51 | 26.86353 | -80.16939 | 3423 ft | 243 kts | 233° |
| 2026-04-20 23:51 | 26.85308 | -80.18419 | 3053 ft | 242 kts | 233° |
| 2026-04-20 23:51 | 26.84262 | -80.19902 | 2678 ft | 242 kts | 233° |
| 2026-04-20 23:51 | 26.83219 | -80.21381 | 2313 ft | 242 kts | 233° |
| 2026-04-20 23:52 | 26.82176 | -80.22864 | 2052 ft | 241 kts | 233° |
| 2026-04-20 23:52 | 26.81173 | -80.24288 | 2004 ft | 230 kts | 233° |
| 2026-04-20 23:52 | 26.80201 | -80.25666 | 2003 ft | 223 kts | 233° |
| 2026-04-20 23:52 | 26.79239 | -80.27020 | 2005 ft | 223 kts | 230° |
| 2026-04-20 23:53 | 26.78019 | -80.28066 | 1989 ft | 222 kts | 200° |
| 2026-04-20 23:53 | 26.76525 | -80.28379 | 2011 ft | 217 kts | 177° |
| 2026-04-20 23:53 | 26.75017 | -80.28364 | 2003 ft | 216 kts | 173° |
| 2026-04-20 23:53 | 26.73514 | -80.28302 | 2008 ft | 216 kts | 173° |
| 2026-04-20 23:54 | 26.72009 | -80.28231 | 2010 ft | 216 kts | 173° |
| 2026-04-20 23:54 | 26.70505 | -80.28161 | 2013 ft | 216 kts | 173° |
| 2026-04-20 23:54 | 26.69034 | -80.27931 | 1992 ft | 210 kts | 150° |
| 2026-04-20 23:54 | 26.67978 | -80.26945 | 2022 ft | 190 kts | 112° |
| 2026-04-20 23:55 | 26.67776 | -80.25655 | 2022 ft | 156 kts | 73° |
| 2026-04-20 23:55 | 26.68050 | -80.24529 | 2037 ft | 146 kts | 71° |
| 2026-04-20 23:55 | 26.68286 | -80.23421 | 2030 ft | 147 kts | 72° |
| 2026-04-20 23:55 | 26.68520 | -80.22313 | 2021 ft | 147 kts | 72° |
| 2026-04-20 23:56 | 26.68708 | -80.21201 | 1949 ft | 150 kts | 78° |
| 2026-04-20 23:56 | 26.68723 | -80.20053 | 1740 ft | 144 kts | 85° |
| 2026-04-20 23:56 | 26.68675 | -80.18959 | 1566 ft | 138 kts | 87° |
| 2026-04-20 23:56 | 26.68628 | -80.17882 | 1369 ft | 138 kts | 86° |
| 2026-04-20 23:57 | 26.68579 | -80.16805 | 1172 ft | 138 kts | 87° |
| 2026-04-20 23:57 | 26.68531 | -80.15736 | 983 ft | 138 kts | 88° |
| 2026-04-20 23:57 | 26.68484 | -80.14672 | 798 ft | 137 kts | 88° |
| 2026-04-20 23:57 | 26.68440 | -80.13605 | 617 ft | 137 kts | 87° |
| 2026-04-20 23:58 | 26.68392 | -80.12545 | 430 ft | 136 kts | 89° |
| 2026-04-20 23:58 | 26.68349 | -80.11488 | 253 ft | 136 kts | 88° |
| 2026-04-20 23:58 | 26.68301 | -80.10430 | 55 ft | 135 kts | 89° |
| 2026-04-20 23:58 | 26.68263 | -80.09505 | 34 ft | 95 kts | 87° |
| 2026-04-20 23:59 | 26.68240 | -80.08958 | 34 ft | 46 kts | 90° |
| 2026-04-20 23:59 | 26.68231 | -80.08741 | 34 ft | 23 kts | 94° |
| 2026-04-20 23:59 | 26.68242 | -80.08636 | 34 ft | 9 kts | 34° |
| 2026-04-20 23:59 | 26.68299 | -80.08629 | 34 ft | 6 kts | 2° |
| 2026-04-21 00:00 | 26.68349 | -80.08629 | 34 ft | 8 kts | 4° |
| 2026-04-21 00:00 | 26.68405 | -80.08625 | 34 ft | 6 kts | 358° |
| 2026-04-21 00:00 | 26.68429 | -80.08665 | 34 ft | 8 kts | 270° |
| 2026-04-21 00:00 | 26.68430 | -80.08743 | 34 ft | 11 kts | 270° |
| 2026-04-21 00:01 | 26.68435 | -80.08841 | 34 ft | 14 kts | 273° |
| 2026-04-21 00:01 | 26.68438 | -80.08951 | 34 ft | 14 kts | 271° |
| 2026-04-21 00:01 | 26.68453 | -80.09009 | 34 ft | 5 kts | 342° |
| 2026-04-21 00:01 | 26.68494 | -80.09013 | 34 ft | 7 kts | 358° |
| 2026-04-21 00:02 | 26.68540 | -80.09014 | 34 ft | 2 kts | 359° |